Time;durP1;ratioP1;P1;durP2;ratioP2;P2;SDS_P1;SDS_P2;PMS_P1;PMS_P2;Temp;Humidity;BMP_temperature;BMP_pressure;BME280_temperature;BME280_humidity;BME280_pressure;Samples;Min_cycle;Max_cycle;Signal;HPM_P1;HPM_P2
2021/11/22 00:03:38;;;;;;;38.30;22.80;;;;;;;5.31;80.09;98297.39;214958;1316;25424;-77
2021/11/22 00:08:40;;;;;;;37.80;22.70;;;;;;;5.42;79.97;98301.21;214899;1321;22827;-76
2021/11/22 00:13:42;;;;;;;32.80;20.90;;;;;;;5.53;80.17;98304.71;215130;1321;22950;-76
2021/11/22 00:18:44;;;;;;;39.10;22.50;;;;;;;5.61;79.67;98312.20;214950;1320;22790;-76
2021/11/22 00:23:46;;;;;;;35.10;20.70;;;;;;;5.69;79.44;98315.39;214934;1322;24159;-76
2021/11/22 00:28:48;;;;;;;36.10;21.40;;;;;;;5.72;79.16;98320.85;214901;1322;24793;-77
2021/11/22 00:34:10;;;;;;;33.70;20.00;;;;;;;5.74;79.14;98323.35;214968;1316;25502;-77
2021/11/22 00:39:25;;;;;;;34.50;21.30;;;;;;;5.80;79.15;98313.73;214953;1319;25206;-77
2021/11/22 00:44:27;;;;;;;31.40;18.80;;;;;;;5.88;79.52;98319.83;214873;1320;22632;-77
2021/11/22 00:49:30;;;;;;;32.00;18.80;;;;;;;5.95;79.06;98326.20;214602;1316;25234;-77
2021/11/22 00:54:32;;;;;;;31.90;19.80;;;;;;;5.98;79.02;98324.20;214807;1320;24181;-76
2021/11/22 00:59:34;;;;;;;33.20;20.90;;;;;;;6.02;79.05;98321.65;214985;1321;22607;-76
2021/11/22 01:04:37;;;;;;;34.40;20.80;;;;;;;6.07;79.16;98323.66;214653;1322;24254;-76
2021/11/22 01:09:39;;;;;;;30.40;19.50;;;;;;;6.10;78.96;98317.95;215073;1321;22630;-76
2021/11/22 01:14:41;;;;;;;25.80;16.60;;;;;;;6.11;78.81;98328.27;214856;1321;22610;-76
2021/11/22 01:19:43;;;;;;;30.40;18.50;;;;;;;6.08;79.12;98324.98;215019;1320;22664;-76
2021/11/22 01:24:45;;;;;;;29.50;18.10;;;;;;;6.08;79.06;98324.03;215026;1319;22705;-76
2021/11/22 01:30:18;;;;;;;32.20;19.30;;;;;;;6.07;79.00;98330.89;215135;1321;22653;-75
2021/11/22 01:35:22;;;;;;;32.70;20.90;;;;;;;6.06;78.87;98332.38;214912;1320;22583;-76
2021/11/22 01:40:26;;;;;;;36.50;20.90;;;;;;;6.07;79.05;98327.70;214746;1316;24216;-76
2021/11/22 01:45:44;;;;;;;37.50;21.50;;;;;;;6.12;79.00;98327.30;214788;1320;22774;-76
2021/11/22 01:50:52;;;;;;;37.50;22.20;;;;;;;6.14;78.73;98335.38;214616;1313;22620;-77
2021/11/22 01:55:55;;;;;;;32.00;19.80;;;;;;;6.08;78.93;98343.70;214525;1322;22497;-76
2021/11/22 02:00:58;;;;;;;35.00;20.80;;;;;;;6.04;78.83;98347.27;214866;1320;22751;-76
2021/11/22 02:06:00;;;;;;;33.30;19.40;;;;;;;6.03;79.19;98355.24;215074;1320;22676;-76
2021/11/22 02:11:04;;;;;;;34.20;20.10;;;;;;;6.00;78.99;98364.29;215297;1320;24441;-76
2021/11/22 02:16:06;;;;;;;29.20;18.60;;;;;;;5.97;78.97;98369.92;215286;1321;22618;-76
2021/11/22 02:21:08;;;;;;;31.00;18.60;;;;;;;5.94;79.27;98369.26;214969;1317;22584;-76
2021/11/22 02:26:10;;;;;;;29.00;18.60;;;;;;;5.92;79.29;98370.60;214843;1321;22583;-76
2021/11/22 02:31:12;;;;;;;31.50;18.00;;;;;;;5.94;79.40;98363.31;214705;1322;25233;-76
2021/11/22 02:36:14;;;;;;;31.90;18.90;;;;;;;5.95;79.34;98355.50;214875;1320;22642;-76
2021/11/22 02:41:17;;;;;;;29.30;19.00;;;;;;;5.98;79.53;98362.79;214645;1322;22619;-76
2021/11/22 02:46:19;;;;;;;30.80;18.10;;;;;;;6.00;79.65;98363.28;214900;1317;22613;-76
2021/11/22 02:51:21;;;;;;;29.90;17.60;;;;;;;6.04;79.63;98366.47;214898;1316;22510;-75
2021/11/22 02:56:35;;;;;;;32.40;18.60;;;;;;;6.08;79.53;98369.98;215000;1320;25201;-76
2021/11/22 03:01:54;;;;;;;30.10;18.20;;;;;;;6.16;79.68;98373.94;214793;1316;25402;-76
2021/11/22 03:06:57;;;;;;;28.30;17.80;;;;;;;6.22;79.41;98377.29;214842;1320;22608;-76
2021/11/22 03:12:15;;;;;;;28.30;17.50;;;;;;;6.19;79.19;98378.84;214964;1322;22619;-76
2021/11/22 03:17:33;;;;;;;30.40;18.60;;;;;;;6.13;79.18;98381.88;214572;1324;25295;-75
2021/11/22 03:22:35;;;;;;;28.40;18.50;;;;;;;6.14;79.56;98380.97;214407;1324;22656;-76
2021/11/22 03:27:39;;;;;;;28.80;18.80;;;;;;;6.18;79.31;98394.58;214732;1322;22647;-76
2021/11/22 03:32:42;;;;;;;31.70;18.70;;;;;;;6.15;79.54;98394.91;214857;1320;22570;-76
2021/11/22 03:37:45;;;;;;;29.40;18.10;;;;;;;6.22;79.65;98382.50;215284;1319;22691;-76
2021/11/22 03:48:16;;;;;;;30.50;19.30;;;;;;;6.27;79.26;98395.90;214792;1320;22598;-76
2021/11/22 03:53:18;;;;;;;27.00;16.70;;;;;;;6.28;79.57;98396.38;215146;1321;22657;-77
2021/11/22 03:58:20;;;;;;;31.80;18.50;;;;;;;6.21;78.80;98407.50;215167;1313;22719;-77
2021/11/22 04:03:22;;;;;;;31.30;18.30;;;;;;;6.15;79.01;98416.40;215030;1319;24240;-76
2021/11/22 04:08:24;;;;;;;29.50;17.00;;;;;;;6.15;78.98;98427.72;214886;1321;22582;-77
2021/11/22 04:13:26;;;;;;;26.20;16.90;;;;;;;6.15;78.97;98420.34;214754;1322;24426;-77
2021/11/22 04:18:30;;;;;;;28.90;16.70;;;;;;;6.14;79.26;98419.42;214757;1321;22604;-76
2021/11/22 04:23:33;;;;;;;28.00;17.60;;;;;;;6.10;79.18;98425.50;214919;1318;22646;-76
2021/11/22 04:28:38;;;;;;;27.50;17.80;;;;;;;6.11;79.29;98423.05;214603;1324;22651;-77
2021/11/22 04:33:47;;;;;;;27.50;18.30;;;;;;;6.13;79.39;98438.31;214874;1316;25414;-76
2021/11/22 04:38:50;;;;;;;27.30;18.20;;;;;;;6.17;79.46;98443.21;214932;1317;23469;-76
2021/11/22 04:44:02;;;;;;;26.40;16.50;;;;;;;6.10;79.02;98445.87;215006;1317;22746;-77
2021/11/22 04:49:20;;;;;;;28.60;18.10;;;;;;;6.06;79.21;98446.52;214971;1320;25420;-76
2021/11/22 04:54:22;;;;;;;30.30;18.10;;;;;;;6.07;79.39;98450.39;214838;1322;25243;-76
2021/11/22 04:59:24;;;;;;;27.90;17.70;;;;;;;6.06;79.56;98451.73;215140;1320;22588;-76
2021/11/22 05:04:26;;;;;;;29.90;18.00;;;;;;;6.04;79.57;98456.45;215050;1322;22657;-76
2021/11/22 05:09:29;;;;;;;29.60;18.00;;;;;;;6.02;79.55;98459.59;213706;1321;1740737;-76
2021/11/22 05:14:31;;;;;;;29.90;18.20;;;;;;;6.05;79.55;98462.68;215102;1313;22566;-77
2021/11/22 05:19:33;;;;;;;38.50;20.10;;;;;;;6.08;79.76;98470.65;215116;1320;24249;-77
2021/11/22 05:24:35;;;;;;;35.60;19.60;;;;;;;6.11;80.25;98472.63;215037;1316;22556;-76
2021/11/22 05:29:39;;;;;;;32.80;19.70;;;;;;;6.18;80.35;98475.66;215053;1315;26092;-77
2021/11/22 05:35:05;;;;;;;37.10;21.00;;;;;;;6.25;80.32;98481.88;215012;1321;24006;-76
2021/11/22 05:40:08;;;;;;;34.50;20.70;;;;;;;6.23;80.05;98488.42;214905;1320;22579;-76
2021/11/22 05:45:11;;;;;;;38.70;20.60;;;;;;;6.16;79.90;98495.70;214904;1316;25390;-76
2021/11/22 05:50:13;;;;;;;37.70;20.50;;;;;;;6.19;80.62;98502.89;214659;1321;23808;-76
2021/11/22 05:55:23;;;;;;;35.50;19.90;;;;;;;6.21;80.40;98505.13;214755;1321;23728;-77
2021/11/22 06:00:26;;;;;;;34.00;20.20;;;;;;;6.19;80.42;98508.52;215015;1321;22601;-76
2021/11/22 06:05:28;;;;;;;35.00;20.40;;;;;;;6.20;80.40;98513.95;215277;1319;23865;-77
2021/11/22 06:10:36;;;;;;;37.00;19.80;;;;;;;6.24;80.71;98520.02;215314;1313;22604;-76
2021/11/22 06:15:39;;;;;;;34.20;19.90;;;;;;;6.29;80.83;98525.55;214990;1321;22509;-76
2021/11/22 06:20:42;;;;;;;36.40;20.70;;;;;;;6.34;80.69;98534.55;215214;1314;24390;-77
2021/11/22 06:26:03;;;;;;;34.50;19.70;;;;;;;6.31;80.78;98545.04;214983;1320;22663;-77
2021/11/22 06:31:05;;;;;;;37.80;20.30;;;;;;;6.29;80.80;98556.58;214548;1323;22569;-76
2021/11/22 06:36:10;;;;;;;37.60;20.30;;;;;;;6.30;80.86;98564.35;214654;1322;22679;-76
2021/11/22 06:41:12;;;;;;;40.10;19.40;;;;;;;6.17;80.56;98576.09;215239;1315;23871;-75
2021/11/22 06:46:14;;;;;;;40.30;22.00;;;;;;;6.09;80.85;98583.36;215393;1313;22727;-75
2021/11/22 06:51:16;;;;;;;32.40;16.70;;;;;;;6.10;81.33;98588.00;215591;1316;23283;-76
2021/11/22 06:56:34;;;;;;;32.70;18.70;;;;;;;6.13;81.39;98586.83;216170;1316;25390;-76
2021/11/22 07:01:51;;;;;;;30.20;17.30;;;;;;;6.14;81.24;98589.60;215403;1313;22790;-77
2021/11/22 07:06:54;;;;;;;31.60;17.40;;;;;;;6.09;81.78;98597.35;215807;1313;22663;-77
2021/11/22 07:11:56;;;;;;;28.60;16.90;;;;;;;6.06;81.54;98601.54;216052;1313;22700;-75
2021/11/22 07:16:59;;;;;;;32.10;17.20;;;;;;;6.07;81.69;98609.89;215065;1316;23984;-75
2021/11/22 07:22:05;;;;;;;31.40;18.40;;;;;;;6.11;82.16;98614.70;215451;1316;22671;-76
2021/11/22 07:27:10;;;;;;;30.60;19.00;;;;;;;6.14;81.98;98623.85;215931;1313;24400;-76
2021/11/22 07:32:13;;;;;;;31.30;17.80;;;;;;;6.13;81.94;98629.27;215640;1313;25239;-75
2021/11/22 07:37:15;;;;;;;31.60;17.70;;;;;;;6.18;82.47;98636.25;215785;1313;22530;-75
2021/11/22 07:42:17;;;;;;;32.30;17.80;;;;;;;6.28;82.86;98643.46;215638;1313;22655;-75
2021/11/22 07:47:19;;;;;;;27.70;16.90;;;;;;;6.36;83.17;98648.16;215640;1313;22618;-75
2021/11/22 07:52:24;;;;;;;27.50;16.70;;;;;;;6.37;82.76;98647.80;215816;1313;22694;-75
2021/11/22 07:57:28;;;;;;;30.50;17.20;;;;;;;6.36;82.68;98653.59;215640;1313;25407;-75
2021/11/22 08:02:30;;;;;;;21.00;13.20;;;;;;;6.37;82.76;98660.08;215230;1316;25313;-75
2021/11/22 08:07:36;;;;;;;11.70;7.50;;;;;;;6.38;82.85;98667.70;215791;1313;25357;-76
2021/11/22 08:12:39;;;;;;;11.10;7.00;;;;;;;6.32;82.67;98679.91;215776;1316;24177;-75
2021/11/22 08:17:42;;;;;;;8.40;5.30;;;;;;;6.25;82.40;98692.29;215488;1313;25339;-75
2021/11/22 08:22:45;;;;;;;7.70;4.00;;;;;;;6.14;82.41;98693.86;215489;1316;22762;-75
2021/11/22 08:27:49;;;;;;;11.70;5.80;;;;;;;6.07;82.89;98702.76;215801;1313;22718;-75
2021/11/22 08:32:55;;;;;;;9.50;6.40;;;;;;;6.01;83.15;98708.97;215402;1313;23027;-75
2021/11/22 08:38:00;;;;;;;9.90;5.80;;;;;;;5.99;83.47;98715.17;215501;1316;22647;-76
2021/11/22 08:43:02;;;;;;;7.70;4.40;;;;;;;5.98;83.02;98721.48;215945;1313;22579;-75
2021/11/22 08:48:07;;;;;;;2.90;2.50;;;;;;;5.92;82.84;98727.14;215807;1316;22628;-75
2021/11/22 08:53:15;;;;;;;5.30;2.50;;;;;;;5.87;82.76;98728.88;215709;1313;25423;-75
2021/11/22 08:58:38;;;;;;;5.60;2.70;;;;;;;5.83;82.68;98727.46;215597;1313;22620;-75
2021/11/22 09:03:42;;;;;;;4.90;3.00;;;;;;;5.84;83.05;98740.60;215879;1313;22521;-77
2021/11/22 09:08:44;;;;;;;5.00;3.00;;;;;;;5.84;83.03;98748.73;215647;1315;22607;-76
2021/11/22 09:13:47;;;;;;;7.10;3.60;;;;;;;5.89;83.08;98751.84;215449;1316;24175;-76
2021/11/22 09:18:48;;;;;;;6.30;3.80;;;;;;;6.01;83.28;98754.90;215657;1315;22543;-76
2021/11/22 09:23:51;;;;;;;6.40;4.10;;;;;;;6.12;83.56;98757.63;215474;1313;22710;-76
2021/11/22 09:28:54;;;;;;;5.10;3.30;;;;;;;6.24;83.53;98764.12;215270;1313;24310;-77
2021/11/22 09:33:56;;;;;;;8.70;4.00;;;;;;;6.25;83.00;98767.73;215367;1315;23850;-77
2021/11/22 09:38:58;;;;;;;6.40;4.40;;;;;;;6.28;83.11;98772.00;215679;1316;22621;-76
2021/11/22 09:44:14;;;;;;;5.80;3.10;;;;;;;6.33;83.13;98773.56;215458;1316;22682;-76
2021/11/22 09:49:36;;;;;;;5.10;3.50;;;;;;;6.35;82.60;98779.48;215317;1315;26900;-77
2021/11/22 09:54:39;;;;;;;6.40;3.50;;;;;;;6.31;82.43;98779.22;215560;1316;22508;-77
2021/11/22 09:59:42;;;;;;;6.50;4.40;;;;;;;6.33;82.29;98775.44;215300;1315;22683;-76
2021/11/22 10:05:22;;;;;;;15.20;4.40;;;;;;;6.40;82.82;98777.06;215724;1314;25078;-77
2021/11/22 10:10:24;;;;;;;5.30;4.00;;;;;;;6.45;82.41;98778.19;215302;1316;22734;-76
2021/11/22 10:15:32;;;;;;;7.20;3.90;;;;;;;6.45;82.41;98774.79;215492;1316;23117;-76
2021/11/22 10:20:38;;;;;;;5.70;4.00;;;;;;;6.47;82.27;98775.54;215892;1313;22559;-76
2021/11/22 10:25:43;;;;;;;7.40;5.00;;;;;;;6.54;82.25;98775.09;215865;1315;22733;-78
2021/11/22 10:30:55;;;;;;;9.40;5.40;;;;;;;6.67;82.56;98779.91;215718;1313;22598;-77
2021/11/22 10:36:02;;;;;;;8.40;5.90;;;;;;;6.77;82.46;98782.39;215733;1313;24289;-77
2021/11/22 10:41:07;;;;;;;7.50;4.50;;;;;;;6.81;82.19;98782.98;215409;1316;22702;-77
2021/11/22 10:46:11;;;;;;;15.40;5.00;;;;;;;6.85;81.86;98783.25;215505;1313;22628;-77
2021/11/22 10:51:22;;;;;;;9.40;6.00;;;;;;;6.92;81.85;98786.25;215658;1314;22729;-77
2021/11/22 10:56:31;;;;;;;8.00;5.00;;;;;;;7.02;81.96;98786.96;215500;1313;25993;-76
2021/11/22 11:01:39;;;;;;;7.90;5.10;;;;;;;7.09;81.50;98787.50;215790;1319;22547;-76
2021/11/22 11:07:05;;;;;;;11.10;6.00;;;;;;;7.15;81.63;98793.58;215705;1313;23697;-76
2021/11/22 11:12:12;;;;;;;11.80;6.80;;;;;;;7.25;81.82;98795.56;215925;1313;24281;-76
2021/11/22 11:17:23;;;;;;;9.80;6.00;;;;;;;7.31;81.51;98799.35;215361;1316;22579;-76
2021/11/22 11:22:30;;;;;;;12.40;6.50;;;;;;;7.28;80.89;98801.33;215301;1316;22756;-76
2021/11/22 11:27:40;;;;;;;8.70;6.10;;;;;;;7.29;80.85;98806.86;215594;1316;24388;-76
2021/11/22 11:32:42;;;;;;;7.60;5.50;;;;;;;7.32;80.59;98807.93;215919;1313;22508;-75
2021/11/22 11:38:17;;;;;;;8.90;5.40;;;;;;;7.35;80.80;98809.20;215573;1317;23024;-76
2021/11/22 11:43:41;;;;;;;7.70;5.40;;;;;;;7.31;80.52;98803.45;215303;1317;25427;-77
2021/11/22 11:49:09;;;;;;;9.60;6.00;;;;;;;7.24;80.36;98809.52;215301;1320;22622;-76
2021/11/22 11:54:11;;;;;;;13.50;7.10;;;;;;;7.21;80.82;98815.97;215557;1320;22538;-77
2021/11/22 11:59:41;;;;;;;13.30;7.20;;;;;;;7.26;80.87;98823.65;215404;1316;23091;-76
2021/11/22 12:04:59;;;;;;;10.70;6.40;;;;;;;7.29;80.77;98829.77;215208;1318;23418;-76
2021/11/22 12:10:19;;;;;;;9.20;5.80;;;;;;;7.23;80.41;98826.89;215966;1316;22747;-76
2021/11/22 12:15:41;;;;;;;13.30;6.10;;;;;;;7.13;80.37;98831.20;215867;1316;25242;-76
2021/11/22 12:21:23;;;;;;;9.70;6.10;;;;;;;7.10;80.67;98831.94;215401;1319;22641;-76
2021/11/22 12:26:36;;;;;;;10.40;6.20;;;;;;;7.08;80.86;98835.50;215498;1320;23883;-76
2021/11/22 12:31:47;;;;;;;9.70;6.30;;;;;;;7.06;80.62;98843.70;215857;1316;25329;-76
2021/11/22 12:37:24;;;;;;;11.10;6.30;;;;;;;7.00;80.74;98841.77;215231;1316;24353;-76
2021/11/22 12:42:27;;;;;;;11.80;6.40;;;;;;;6.97;80.90;98846.73;215088;1316;22672;-76
2021/11/22 12:47:34;;;;;;;12.90;9.00;;;;;;;6.91;81.00;98849.85;215489;1316;24029;-76
2021/11/22 12:52:36;;;;;;;11.20;8.10;;;;;;;6.87;81.17;98862.49;214937;1316;22694;-76
2021/11/22 12:57:42;;;;;;;10.00;6.10;;;;;;;6.80;81.27;98864.77;215586;1316;22546;-76
2021/11/22 13:02:57;;;;;;;10.60;6.40;;;;;;;6.71;81.49;98870.54;215412;1316;22500;-73
2021/11/22 13:08:19;;;;;;;13.60;7.80;;;;;;;6.52;81.22;98872.64;214915;1320;267971;-74
2021/11/22 13:13:41;;;;;;;16.80;9.20;;;;;;;6.38;81.38;98878.00;215406;1316;22656;-74
2021/11/22 13:18:48;;;;;;;16.60;8.70;;;;;;;6.29;81.86;98872.79;215167;1315;25443;-74
2021/11/22 13:24:15;;;;;;;13.20;8.00;;;;;;;6.22;81.60;98875.89;215532;1316;24184;-74
2021/11/22 13:29:20;;;;;;;13.40;8.30;;;;;;;6.15;81.80;98886.91;215507;1313;22655;-74
2021/11/22 13:34:27;;;;;;;19.70;9.10;;;;;;;6.10;81.92;98893.14;215420;1313;22655;-74
2021/11/22 13:39:36;;;;;;;15.60;9.10;;;;;;;6.09;82.22;98892.77;215471;1313;24202;-75
2021/11/22 13:44:40;;;;;;;16.60;10.00;;;;;;;6.07;82.25;98899.03;215460;1316;22592;-75
2021/11/22 13:49:42;;;;;;;14.30;8.50;;;;;;;6.04;81.99;98905.61;215272;1320;22614;-75
2021/11/22 13:54:54;;;;;;;15.10;8.80;;;;;;;5.98;81.93;98911.24;215656;1318;23485;-75
2021/11/22 13:59:56;;;;;;;16.10;8.70;;;;;;;5.89;81.76;98919.88;215588;1316;24186;-75
2021/11/22 14:05:02;;;;;;;17.00;9.00;;;;;;;5.78;81.62;98924.85;215734;1316;24221;-74
2021/11/22 14:10:05;;;;;;;14.90;8.40;;;;;;;5.73;81.90;98933.84;215529;1316;24253;-74
2021/11/22 14:15:22;;;;;;;13.20;8.40;;;;;;;5.72;81.83;98940.63;215634;1313;23675;-75
2021/11/22 14:20:24;;;;;;;12.20;7.60;;;;;;;5.73;82.05;98946.77;215721;1313;22505;-75
2021/11/22 14:25:40;;;;;;;14.40;7.90;;;;;;;5.74;81.91;98945.11;215570;1316;25909;-74
2021/11/22 14:31:02;;;;;;;17.70;8.40;;;;;;;5.77;82.09;98949.23;215159;1315;22646;-74
2021/11/22 14:36:10;;;;;;;14.50;8.90;;;;;;;5.79;82.13;98956.70;215495;1313;22632;-74
2021/11/22 14:41:12;;;;;;;14.10;8.10;;;;;;;5.80;82.06;98957.61;215248;1318;24423;-74
2021/11/22 14:46:18;;;;;;;19.10;9.60;;;;;;;5.80;81.78;98962.23;215657;1315;22745;-75
2021/11/22 14:51:23;;;;;;;15.30;8.90;;;;;;;5.81;81.62;98966.29;215544;1316;22626;-75
2021/11/22 14:56:28;;;;;;;13.80;8.60;;;;;;;5.81;81.59;98971.83;215505;1316;25016;-75
2021/11/22 15:01:40;;;;;;;13.50;7.70;;;;;;;5.77;81.23;98978.73;216132;1316;24670;-75
2021/11/22 15:06:46;;;;;;;17.30;9.40;;;;;;;5.66;80.65;98988.73;215197;1316;22646;-75
2021/11/22 15:11:53;;;;;;;14.00;8.50;;;;;;;5.52;80.79;98993.48;215516;1318;22908;-75
2021/11/22 15:17:00;;;;;;;18.20;9.50;;;;;;;5.40;80.90;98998.65;215378;1319;23816;-74
2021/11/22 15:22:04;;;;;;;15.10;9.30;;;;;;;5.29;80.72;98999.83;215534;1321;22523;-75
2021/11/22 15:27:10;;;;;;;18.00;9.80;;;;;;;5.18;80.93;99006.01;215547;1319;22679;-74
2021/11/22 15:32:13;;;;;;;14.60;8.60;;;;;;;5.08;80.96;99012.52;215747;1316;22750;-74
2021/11/22 15:37:15;;;;;;;16.70;10.20;;;;;;;4.99;80.96;99010.92;215686;1313;23457;-74
2021/11/22 15:42:19;;;;;;;20.20;12.50;;;;;;;4.93;80.91;99016.05;214861;1318;22505;-74
2021/11/22 15:47:21;;;;;;;16.80;10.10;;;;;;;4.89;81.10;99022.73;215120;1319;24346;-74
2021/11/22 15:52:23;;;;;;;19.00;10.50;;;;;;;4.88;81.20;99024.42;215041;1320;22773;-74
2021/11/22 15:57:25;;;;;;;18.90;9.70;;;;;;;4.87;81.19;99034.28;214838;1322;22792;-75
2021/11/22 16:02:27;;;;;;;23.70;11.30;;;;;;;4.86;81.42;99038.56;214866;1316;25390;-74
2021/11/22 16:07:29;;;;;;;26.80;13.50;;;;;;;4.81;81.08;99041.30;215112;1320;23080;-74
2021/11/22 16:12:32;;;;;;;27.30;13.80;;;;;;;4.73;81.27;99046.77;214975;1321;24417;-74
2021/11/22 16:17:34;;;;;;;26.50;12.50;;;;;;;4.59;81.17;99055.85;215154;1316;22598;-74
2021/11/22 16:22:36;;;;;;;28.40;13.40;;;;;;;4.46;81.08;99054.73;214757;1319;22517;-74
2021/11/22 16:27:38;;;;;;;25.60;13.40;;;;;;;4.35;81.27;99062.73;214937;1319;23183;-74
2021/11/22 16:32:41;;;;;;;22.50;12.00;;;;;;;4.24;81.26;99076.34;214984;1321;22523;-73
2021/11/22 16:38:03;;;;;;;;;;;;;;;4.14;81.42;99083.01;214920;1320;25218;-74
2021/11/22 16:43:23;;;;;;;20.90;10.80;;;;;;;4.02;81.53;99086.88;214882;1322;22626;-74
2021/11/22 16:48:25;;;;;;;21.20;10.90;;;;;;;3.92;81.75;99090.94;214989;1321;26033;-74
2021/11/22 16:53:27;;;;;;;21.30;11.50;;;;;;;3.86;81.88;99092.74;215138;1321;22582;-73
2021/11/22 16:58:42;;;;;;;19.50;10.80;;;;;;;3.84;82.16;99095.92;214874;1322;25375;-74
2021/11/22 17:03:51;;;;;;;22.20;11.70;;;;;;;3.83;82.24;99094.16;214982;1322;24246;-74
2021/11/22 17:08:53;;;;;;;26.10;13.40;;;;;;;3.82;82.50;99104.20;214900;1321;22610;-74
2021/11/22 17:14:11;;;;;;;21.50;12.80;;;;;;;3.79;82.52;99114.33;214896;1320;23174;-74
2021/11/22 17:19:20;;;;;;;26.70;12.00;;;;;;;3.75;82.29;99125.23;214944;1322;22525;-74
2021/11/22 17:24:22;;;;;;;21.00;11.30;;;;;;;3.73;82.46;99137.33;214912;1320;22631;-74
2021/11/22 17:29:25;;;;;;;18.70;10.60;;;;;;;3.72;82.34;99143.17;214800;1319;24241;-75
2021/11/22 17:34:27;;;;;;;21.80;11.70;;;;;;;3.69;82.11;99153.02;215067;1321;23159;-75
2021/11/22 17:39:29;;;;;;;21.90;11.10;;;;;;;3.65;82.26;99160.04;214838;1315;22589;-74
2021/11/22 17:44:32;;;;;;;21.10;11.20;;;;;;;3.63;82.18;99163.13;214780;1321;22600;-73
2021/11/22 17:49:34;;;;;;;23.20;11.10;;;;;;;3.62;82.24;99169.74;215071;1319;23572;-74
2021/11/22 17:54:37;;;;;;;22.80;12.30;;;;;;;3.58;82.05;99174.95;214695;1316;25905;-74
2021/11/22 17:59:38;;;;;;;25.30;13.20;;;;;;;3.54;82.27;99185.02;215239;1320;22508;-74
2021/11/22 18:04:41;;;;;;;19.10;11.00;;;;;;;3.51;82.29;99186.40;214898;1322;24308;-74
2021/11/22 18:09:43;;;;;;;22.60;12.60;;;;;;;3.46;82.29;99193.29;214662;1322;22767;-74
2021/11/22 18:14:47;;;;;;;20.30;11.00;;;;;;;3.39;82.27;99204.53;215060;1321;22711;-74
2021/11/22 18:19:49;;;;;;;20.40;10.50;;;;;;;3.35;82.47;99209.95;214718;1321;24354;-75
2021/11/22 18:24:51;;;;;;;20.80;11.30;;;;;;;3.34;82.71;99209.02;214821;1319;22572;-74
2021/11/22 18:29:53;;;;;;;23.20;11.90;;;;;;;3.36;82.84;99214.30;214824;1318;22692;-75
2021/11/22 18:34:56;;;;;;;22.80;11.90;;;;;;;3.41;82.96;99217.19;214728;1319;22978;-75
2021/11/22 18:40:12;;;;;;;21.60;12.00;;;;;;;3.49;82.96;99228.59;214726;1316;24244;-75
2021/11/22 18:45:35;;;;;;;37.20;19.60;;;;;;;3.58;83.16;99236.57;214790;1316;22649;-74
2021/11/22 18:50:41;;;;;;;36.60;20.00;;;;;;;3.66;83.10;99247.29;214987;1319;22766;-75
2021/11/22 18:55:43;;;;;;;26.30;16.00;;;;;;;3.72;82.95;99256.49;214985;1316;22986;-74
2021/11/22 19:00:45;;;;;;;22.80;12.40;;;;;;;3.80;82.91;99262.28;215111;1321;22729;-75
2021/11/22 19:05:51;;;;;;;20.60;10.90;;;;;;;3.86;82.79;99263.77;215074;1320;25268;-75
2021/11/22 19:11:03;;;;;;;17.60;10.70;;;;;;;3.94;82.60;99266.70;215081;1321;24209;-75
2021/11/22 19:16:06;;;;;;;17.10;11.50;;;;;;;3.98;82.56;99275.87;215006;1316;22715;-75
2021/11/22 19:21:18;;;;;;;19.10;10.80;;;;;;;4.02;82.51;99284.96;214784;1321;23188;-75
2021/11/22 19:26:20;;;;;;;17.00;11.00;;;;;;;4.04;82.47;99293.80;214877;1321;24025;-74
2021/11/22 19:31:22;;;;;;;17.10;10.80;;;;;;;4.06;82.21;99297.56;214834;1321;22578;-74
2021/11/22 19:36:25;;;;;;;16.30;10.90;;;;;;;4.08;82.12;99304.13;214961;1321;22686;-75
2021/11/22 19:41:31;;;;;;;15.50;9.50;;;;;;;4.09;81.82;99308.45;214763;1317;22616;-74
2021/11/22 19:46:33;;;;;;;13.20;7.60;;;;;;;4.09;81.70;99315.83;214889;1319;24244;-75
2021/11/22 19:51:35;;;;;;;8.40;6.30;;;;;;;4.06;81.22;99315.48;214881;1319;22644;-74
2021/11/22 19:56:37;;;;;;;8.10;5.30;;;;;;;4.03;80.87;99322.23;214984;1321;22512;-74
2021/11/22 20:01:53;;;;;;;7.90;5.30;;;;;;;4.01;80.42;99325.98;215069;1316;22654;-74
2021/11/22 20:06:59;;;;;;;7.80;5.10;;;;;;;3.98;80.20;99332.86;214813;1319;23150;-74
2021/11/22 20:12:01;;;;;;;7.70;4.80;;;;;;;3.97;79.95;99338.20;214998;1321;25354;-74
2021/11/22 20:17:03;;;;;;;7.00;4.80;;;;;;;3.94;79.70;99338.52;215012;1320;22721;-74
2021/11/22 20:22:19;;;;;;;6.10;4.50;;;;;;;3.93;79.30;99343.69;214838;1320;25872;-74
2021/11/22 20:27:21;;;;;;;6.10;4.00;;;;;;;3.91;79.11;99346.08;214767;1319;22615;-75
2021/11/22 20:32:25;;;;;;;7.30;4.30;;;;;;;3.88;79.08;99344.83;214896;1321;22579;-75
2021/11/22 20:37:29;;;;;;;5.30;3.90;;;;;;;3.83;78.84;99352.41;215076;1320;24141;-74
2021/11/22 20:42:32;;;;;;;6.30;3.90;;;;;;;3.78;78.60;99354.89;215306;1321;22549;-73
2021/11/22 20:47:34;;;;;;;9.20;5.30;;;;;;;3.71;78.60;99361.77;215033;1322;25396;-74
2021/11/22 20:52:41;;;;;;;9.60;5.40;;;;;;;3.65;78.58;99364.12;215006;1316;23605;-74
2021/11/22 20:57:44;;;;;;;11.80;5.80;;;;;;;3.58;78.53;99374.86;214877;1317;22825;-74
2021/11/22 21:02:46;;;;;;;8.40;4.40;;;;;;;3.51;78.67;99376.19;215068;1321;22754;-74
2021/11/22 21:07:48;;;;;;;7.50;5.00;;;;;;;3.44;78.55;99379.19;214806;1321;297463;-74
2021/11/22 21:12:50;;;;;;;10.70;4.60;;;;;;;3.33;78.50;99381.66;214904;1320;25460;-73
2021/11/22 21:17:52;;;;;;;9.20;5.00;;;;;;;3.23;78.78;99388.40;214727;1316;24307;-73
2021/11/22 21:22:55;;;;;;;8.60;5.30;;;;;;;3.11;78.64;99386.70;214928;1319;24337;-73
2021/11/22 21:27:59;;;;;;;7.70;4.70;;;;;;;2.97;78.63;99388.14;215076;1320;23132;-74
2021/11/22 21:33:03;;;;;;;7.50;4.60;;;;;;;2.81;78.61;99394.80;214922;1322;22603;-74
2021/11/22 21:38:07;;;;;;;8.80;4.80;;;;;;;2.69;78.50;99395.19;214802;1321;22644;-73
2021/11/22 21:43:10;;;;;;;9.00;4.90;;;;;;;2.60;78.38;99393.55;215032;1319;22602;-74
2021/11/22 21:48:12;;;;;;;8.40;5.20;;;;;;;2.51;78.25;99395.46;214948;1321;24330;-74
2021/11/22 21:53:14;;;;;;;9.70;5.30;;;;;;;2.45;78.26;99402.48;214759;1321;25467;-74
2021/11/22 21:58:16;;;;;;;10.10;5.20;;;;;;;2.41;78.36;99411.80;214861;1320;22581;-75
2021/11/22 22:03:18;;;;;;;11.60;6.10;;;;;;;2.39;78.33;99417.08;215149;1322;22590;-75
2021/11/22 22:08:19;;;;;;;10.70;5.80;;;;;;;2.39;78.24;99430.70;214917;1322;22738;-73
2021/11/22 22:13:21;;;;;;;8.40;5.40;;;;;;;2.43;78.29;99434.95;214987;1317;22654;-73
2021/11/22 22:18:23;;;;;;;11.40;6.30;;;;;;;2.52;78.38;99440.66;214937;1320;25422;-74
2021/11/22 22:23:25;;;;;;;11.30;5.60;;;;;;;2.64;78.63;99452.60;214675;1322;22754;-73
2021/11/22 22:28:32;;;;;;;10.00;5.50;;;;;;;2.73;78.77;99459.86;214771;1316;25335;-73
2021/11/22 22:33:36;;;;;;;11.20;5.70;;;;;;;2.81;78.91;99470.20;214686;1316;22540;-74
2021/11/22 22:38:38;;;;;;;11.60;7.00;;;;;;;2.88;78.96;99475.34;215035;1322;22588;-74
2021/11/22 22:43:40;;;;;;;11.40;6.40;;;;;;;2.95;78.91;99473.84;214935;1318;24247;-74
2021/11/22 22:48:42;;;;;;;10.00;5.10;;;;;;;3.00;78.84;99483.07;214728;1320;23351;-74
2021/11/22 22:53:44;;;;;;;8.70;5.30;;;;;;;3.02;78.48;99486.59;214755;1321;22588;-74
2021/11/22 22:58:46;;;;;;;6.90;4.20;;;;;;;3.05;78.08;99484.91;214856;1322;24190;-73
2021/11/22 23:03:49;;;;;;;7.50;4.40;;;;;;;3.09;77.67;99485.98;214891;1321;24241;-74
2021/11/22 23:08:51;;;;;;;6.00;3.20;;;;;;;3.12;77.27;99485.22;215198;1316;25220;-74
2021/11/22 23:13:53;;;;;;;3.80;2.60;;;;;;;3.13;76.62;99479.63;214823;1317;22618;-74
2021/11/22 23:18:57;;;;;;;2.60;1.70;;;;;;;3.13;76.02;99474.60;215142;1321;22700;-74
2021/11/22 23:24:00;;;;;;;4.90;2.10;;;;;;;3.13;75.54;99469.35;215027;1317;22533;-74
2021/11/22 23:29:04;;;;;;;2.20;1.40;;;;;;;3.15;75.01;99464.15;214721;1321;23871;-74
2021/11/22 23:34:07;;;;;;;2.90;1.40;;;;;;;3.16;74.63;99464.80;214836;1321;22608;-74
2021/11/22 23:39:09;;;;;;;3.60;2.00;;;;;;;3.20;74.28;99469.55;214697;1320;24262;-74
2021/11/22 23:44:11;;;;;;;4.00;2.50;;;;;;;3.20;73.89;99476.87;214631;1322;25418;-73
2021/11/22 23:49:13;;;;;;;5.30;2.80;;;;;;;3.18;73.99;99473.24;214379;1325;22529;-74